sensor_id;sensor_type;location;lat;lon;timestamp;temperature;humidity
10231;DHT22;5159;49.432;8.680;2022-07-05T00:01:13;19.50;37.80
10231;DHT22;5159;49.432;8.680;2022-07-05T00:03:40;19.50;37.90
10231;DHT22;5159;49.432;8.680;2022-07-05T00:06:09;19.40;38.90
10231;DHT22;5159;49.432;8.680;2022-07-05T00:08:36;19.40;39.00
10231;DHT22;5159;49.432;8.680;2022-07-05T00:11:04;19.30;39.80
10231;DHT22;5159;49.432;8.680;2022-07-05T00:13:31;19.30;40.40
10231;DHT22;5159;49.432;8.680;2022-07-05T00:15:58;19.10;40.30
10231;DHT22;5159;49.432;8.680;2022-07-05T00:18:25;19.00;41.00
10231;DHT22;5159;49.432;8.680;2022-07-05T00:20:52;18.90;41.60
10231;DHT22;5159;49.432;8.680;2022-07-05T00:23:20;18.80;43.70
10231;DHT22;5159;49.432;8.680;2022-07-05T00:25:47;18.70;42.80
10231;DHT22;5159;49.432;8.680;2022-07-05T00:28:14;18.80;44.00
10231;DHT22;5159;49.432;8.680;2022-07-05T00:30:41;18.70;44.70
10231;DHT22;5159;49.432;8.680;2022-07-05T00:33:09;18.70;43.70
10231;DHT22;5159;49.432;8.680;2022-07-05T00:35:35;18.70;43.60
10231;DHT22;5159;49.432;8.680;2022-07-05T00:38:02;18.60;43.80
10231;DHT22;5159;49.432;8.680;2022-07-05T00:40:31;18.60;46.00
10231;DHT22;5159;49.432;8.680;2022-07-05T00:42:58;18.60;46.40
10231;DHT22;5159;49.432;8.680;2022-07-05T00:45:25;18.60;46.00
10231;DHT22;5159;49.432;8.680;2022-07-05T00:47:52;18.50;46.20
10231;DHT22;5159;49.432;8.680;2022-07-05T00:50:19;18.50;46.60
10231;DHT22;5159;49.432;8.680;2022-07-05T00:52:46;18.50;46.50
10231;DHT22;5159;49.432;8.680;2022-07-05T00:55:13;18.40;47.60
10231;DHT22;5159;49.432;8.680;2022-07-05T00:57:43;18.40;46.60
10231;DHT22;5159;49.432;8.680;2022-07-05T01:00:11;18.40;46.90
10231;DHT22;5159;49.432;8.680;2022-07-05T01:02:38;18.40;47.40
10231;DHT22;5159;49.432;8.680;2022-07-05T01:05:05;18.40;48.20
10231;DHT22;5159;49.432;8.680;2022-07-05T01:07:32;18.40;48.10
10231;DHT22;5159;49.432;8.680;2022-07-05T01:10:01;18.30;48.10
10231;DHT22;5159;49.432;8.680;2022-07-05T01:12:28;18.30;50.20
10231;DHT22;5159;49.432;8.680;2022-07-05T01:14:56;18.30;51.30
10231;DHT22;5159;49.432;8.680;2022-07-05T01:17:24;18.30;51.80
10231;DHT22;5159;49.432;8.680;2022-07-05T01:19:51;18.20;52.40
10231;DHT22;5159;49.432;8.680;2022-07-05T01:22:19;18.20;51.40
10231;DHT22;5159;49.432;8.680;2022-07-05T01:24:50;18.10;51.70
10231;DHT22;5159;49.432;8.680;2022-07-05T01:27:17;18.10;53.40
10231;DHT22;5159;49.432;8.680;2022-07-05T01:29:44;18.00;54.50
10231;DHT22;5159;49.432;8.680;2022-07-05T01:32:11;18.00;55.20
10231;DHT22;5159;49.432;8.680;2022-07-05T01:34:39;17.90;55.60
10231;DHT22;5159;49.432;8.680;2022-07-05T01:37:07;17.90;55.60
10231;DHT22;5159;49.432;8.680;2022-07-05T01:39:35;17.80;55.70
10231;DHT22;5159;49.432;8.680;2022-07-05T01:42:04;17.80;56.80
10231;DHT22;5159;49.432;8.680;2022-07-05T01:44:31;17.80;56.40
10231;DHT22;5159;49.432;8.680;2022-07-05T01:47:03;17.80;57.90
10231;DHT22;5159;49.432;8.680;2022-07-05T01:49:34;17.70;60.20
10231;DHT22;5159;49.432;8.680;2022-07-05T01:52:08;17.60;60.20
10231;DHT22;5159;49.432;8.680;2022-07-05T01:54:36;17.60;61.00
10231;DHT22;5159;49.432;8.680;2022-07-05T01:57:06;17.50;62.90
10231;DHT22;5159;49.432;8.680;2022-07-05T01:59:34;17.40;64.30
10231;DHT22;5159;49.432;8.680;2022-07-05T02:02:02;17.40;64.90
10231;DHT22;5159;49.432;8.680;2022-07-05T02:04:29;17.30;67.40
10231;DHT22;5159;49.432;8.680;2022-07-05T02:06:56;17.30;68.80
10231;DHT22;5159;49.432;8.680;2022-07-05T02:09:23;17.20;69.40
10231;DHT22;5159;49.432;8.680;2022-07-05T02:11:50;17.10;70.40
10231;DHT22;5159;49.432;8.680;2022-07-05T02:14:19;17.10;72.40
10231;DHT22;5159;49.432;8.680;2022-07-05T02:16:46;17.10;71.00
10231;DHT22;5159;49.432;8.680;2022-07-05T02:19:13;17.10;67.20
10231;DHT22;5159;49.432;8.680;2022-07-05T02:21:40;17.10;67.20
10231;DHT22;5159;49.432;8.680;2022-07-05T02:24:08;17.10;66.20
10231;DHT22;5159;49.432;8.680;2022-07-05T02:26:35;17.10;65.60
10231;DHT22;5159;49.432;8.680;2022-07-05T02:29:03;17.10;65.00
10231;DHT22;5159;49.432;8.680;2022-07-05T02:31:32;17.10;64.30
10231;DHT22;5159;49.432;8.680;2022-07-05T02:33:59;17.10;62.30
10231;DHT22;5159;49.432;8.680;2022-07-05T02:36:26;17.10;62.70
10231;DHT22;5159;49.432;8.680;2022-07-05T02:38:53;17.10;63.80
10231;DHT22;5159;49.432;8.680;2022-07-05T02:41:20;17.10;70.90
10231;DHT22;5159;49.432;8.680;2022-07-05T02:43:47;17.00;74.30
10231;DHT22;5159;49.432;8.680;2022-07-05T02:46:14;16.90;77.10
10231;DHT22;5159;49.432;8.680;2022-07-05T02:48:42;16.80;79.60
10231;DHT22;5159;49.432;8.680;2022-07-05T02:51:09;16.70;81.90
10231;DHT22;5159;49.432;8.680;2022-07-05T02:53:36;16.70;84.10
10231;DHT22;5159;49.432;8.680;2022-07-05T02:56:04;16.60;81.50
10231;DHT22;5159;49.432;8.680;2022-07-05T02:58:31;16.40;78.00
10231;DHT22;5159;49.432;8.680;2022-07-05T03:00:58;16.40;79.00
10231;DHT22;5159;49.432;8.680;2022-07-05T03:03:25;16.40;80.40
10231;DHT22;5159;49.432;8.680;2022-07-05T03:05:53;16.40;81.50
10231;DHT22;5159;49.432;8.680;2022-07-05T03:08:20;16.30;82.20
10231;DHT22;5159;49.432;8.680;2022-07-05T03:10:47;16.40;82.20
10231;DHT22;5159;49.432;8.680;2022-07-05T03:13:14;16.30;82.60
10231;DHT22;5159;49.432;8.680;2022-07-05T03:15:41;16.40;82.90
10231;DHT22;5159;49.432;8.680;2022-07-05T03:18:08;16.30;80.60
10231;DHT22;5159;49.432;8.680;2022-07-05T03:20:35;16.40;81.10
10231;DHT22;5159;49.432;8.680;2022-07-05T03:23:04;16.40;81.80
10231;DHT22;5159;49.432;8.680;2022-07-05T03:25:31;16.40;79.30
10231;DHT22;5159;49.432;8.680;2022-07-05T03:27:58;16.40;82.10
10231;DHT22;5159;49.432;8.680;2022-07-05T03:30:25;16.50;86.10
10231;DHT22;5159;49.432;8.680;2022-07-05T03:32:52;16.50;86.50
10231;DHT22;5159;49.432;8.680;2022-07-05T03:35:19;16.50;81.30
10231;DHT22;5159;49.432;8.680;2022-07-05T03:37:46;16.50;81.10
10231;DHT22;5159;49.432;8.680;2022-07-05T03:40:14;16.60;84.20
10231;DHT22;5159;49.432;8.680;2022-07-05T03:42:41;16.60;86.00
10231;DHT22;5159;49.432;8.680;2022-07-05T03:45:09;16.50;82.70
10231;DHT22;5159;49.432;8.680;2022-07-05T03:47:36;16.60;82.10
10231;DHT22;5159;49.432;8.680;2022-07-05T03:50:04;16.50;83.90
10231;DHT22;5159;49.432;8.680;2022-07-05T03:52:31;16.50;79.90
10231;DHT22;5159;49.432;8.680;2022-07-05T03:54:58;16.50;82.70
10231;DHT22;5159;49.432;8.680;2022-07-05T03:57:27;16.40;81.60
10231;DHT22;5159;49.432;8.680;2022-07-05T03:59:54;16.50;83.40
10231;DHT22;5159;49.432;8.680;2022-07-05T04:02:21;16.50;79.30
10231;DHT22;5159;49.432;8.680;2022-07-05T04:04:48;16.40;78.40
10231;DHT22;5159;49.432;8.680;2022-07-05T04:07:15;16.40;78.80
10231;DHT22;5159;49.432;8.680;2022-07-05T04:09:41;16.40;83.80
10231;DHT22;5159;49.432;8.680;2022-07-05T04:12:09;16.60;87.50
10231;DHT22;5159;49.432;8.680;2022-07-05T04:14:37;16.70;87.70
10231;DHT22;5159;49.432;8.680;2022-07-05T04:17:04;16.70;87.00
10231;DHT22;5159;49.432;8.680;2022-07-05T04:19:31;16.80;87.70
10231;DHT22;5159;49.432;8.680;2022-07-05T04:21:58;16.80;88.10
10231;DHT22;5159;49.432;8.680;2022-07-05T04:24:25;16.70;86.90
10231;DHT22;5159;49.432;8.680;2022-07-05T04:26:52;16.70;87.00
10231;DHT22;5159;49.432;8.680;2022-07-05T04:29:20;16.70;86.00
10231;DHT22;5159;49.432;8.680;2022-07-05T04:31:48;16.60;87.50
10231;DHT22;5159;49.432;8.680;2022-07-05T04:34:15;16.70;89.40
10231;DHT22;5159;49.432;8.680;2022-07-05T04:36:42;16.60;89.70
10231;DHT22;5159;49.432;8.680;2022-07-05T04:39:09;16.60;89.60
10231;DHT22;5159;49.432;8.680;2022-07-05T04:41:36;16.60;87.90
10231;DHT22;5159;49.432;8.680;2022-07-05T04:44:03;16.60;87.30
10231;DHT22;5159;49.432;8.680;2022-07-05T04:46:30;16.60;86.70
10231;DHT22;5159;49.432;8.680;2022-07-05T04:48:59;16.60;85.70
10231;DHT22;5159;49.432;8.680;2022-07-05T04:51:26;16.60;87.50
10231;DHT22;5159;49.432;8.680;2022-07-05T04:53:53;16.70;88.50
10231;DHT22;5159;49.432;8.680;2022-07-05T04:56:21;16.70;88.20
10231;DHT22;5159;49.432;8.680;2022-07-05T04:58:48;16.70;88.00
10231;DHT22;5159;49.432;8.680;2022-07-05T05:01:16;16.70;87.00
10231;DHT22;5159;49.432;8.680;2022-07-05T05:03:43;16.60;89.00
10231;DHT22;5159;49.432;8.680;2022-07-05T05:06:11;16.50;89.30
10231;DHT22;5159;49.432;8.680;2022-07-05T05:08:39;16.40;90.00
10231;DHT22;5159;49.432;8.680;2022-07-05T05:11:07;16.40;89.50
10231;DHT22;5159;49.432;8.680;2022-07-05T05:13:34;16.40;88.80
10231;DHT22;5159;49.432;8.680;2022-07-05T05:16:01;16.40;90.20
10231;DHT22;5159;49.432;8.680;2022-07-05T05:18:29;16.50;87.60
10231;DHT22;5159;49.432;8.680;2022-07-05T05:20:55;16.60;87.70
10231;DHT22;5159;49.432;8.680;2022-07-05T05:23:24;16.70;89.10
10231;DHT22;5159;49.432;8.680;2022-07-05T05:25:53;16.80;90.20
10231;DHT22;5159;49.432;8.680;2022-07-05T05:28:20;17.00;89.80
10231;DHT22;5159;49.432;8.680;2022-07-05T05:30:47;17.00;86.40
10231;DHT22;5159;49.432;8.680;2022-07-05T05:33:14;17.10;87.20
10231;DHT22;5159;49.432;8.680;2022-07-05T05:35:41;17.30;87.70
10231;DHT22;5159;49.432;8.680;2022-07-05T05:38:08;17.40;86.20
10231;DHT22;5159;49.432;8.680;2022-07-05T05:40:36;17.40;84.50
10231;DHT22;5159;49.432;8.680;2022-07-05T05:43:06;17.50;83.30
10231;DHT22;5159;49.432;8.680;2022-07-05T05:45:33;17.60;82.50
10231;DHT22;5159;49.432;8.680;2022-07-05T05:48:00;17.60;82.60
10231;DHT22;5159;49.432;8.680;2022-07-05T05:50:28;17.80;83.40
10231;DHT22;5159;49.432;8.680;2022-07-05T05:52:56;17.90;82.70
10231;DHT22;5159;49.432;8.680;2022-07-05T05:55:24;18.00;82.20
10231;DHT22;5159;49.432;8.680;2022-07-05T05:57:53;18.10;82.50
10231;DHT22;5159;49.432;8.680;2022-07-05T06:00:21;18.30;81.70
10231;DHT22;5159;49.432;8.680;2022-07-05T06:02:49;18.40;81.20
10231;DHT22;5159;49.432;8.680;2022-07-05T06:05:17;18.50;80.10
10231;DHT22;5159;49.432;8.680;2022-07-05T06:07:49;18.70;80.30
10231;DHT22;5159;49.432;8.680;2022-07-05T06:10:18;18.80;80.50
10231;DHT22;5159;49.432;8.680;2022-07-05T06:12:46;18.90;79.30
10231;DHT22;5159;49.432;8.680;2022-07-05T06:15:14;19.00;73.80
10231;DHT22;5159;49.432;8.680;2022-07-05T06:17:41;19.10;76.30
10231;DHT22;5159;49.432;8.680;2022-07-05T06:20:11;19.10;76.30
10231;DHT22;5159;49.432;8.680;2022-07-05T06:22:39;19.00;76.70
10231;DHT22;5159;49.432;8.680;2022-07-05T06:25:09;18.90;76.50
10231;DHT22;5159;49.432;8.680;2022-07-05T06:27:40;19.10;77.10
10231;DHT22;5159;49.432;8.680;2022-07-05T06:30:08;19.20;76.10
10231;DHT22;5159;49.432;8.680;2022-07-05T06:32:37;19.40;74.00
10231;DHT22;5159;49.432;8.680;2022-07-05T06:35:06;19.50;74.60
10231;DHT22;5159;49.432;8.680;2022-07-05T06:37:45;19.70;73.50
10231;DHT22;5159;49.432;8.680;2022-07-05T06:40:17;19.80;74.90
10231;DHT22;5159;49.432;8.680;2022-07-05T06:42:45;20.00;74.00
10231;DHT22;5159;49.432;8.680;2022-07-05T06:45:15;20.30;72.70
10231;DHT22;5159;49.432;8.680;2022-07-05T06:47:44;20.50;72.30
10231;DHT22;5159;49.432;8.680;2022-07-05T06:50:11;20.70;71.00
10231;DHT22;5159;49.432;8.680;2022-07-05T06:52:38;21.00;70.10
10231;DHT22;5159;49.432;8.680;2022-07-05T06:55:08;21.20;68.40
10231;DHT22;5159;49.432;8.680;2022-07-05T06:57:37;21.10;68.40
10231;DHT22;5159;49.432;8.680;2022-07-05T07:00:05;21.00;67.90
10231;DHT22;5159;49.432;8.680;2022-07-05T07:02:32;21.30;68.30
10231;DHT22;5159;49.432;8.680;2022-07-05T07:05:02;21.70;66.80
10231;DHT22;5159;49.432;8.680;2022-07-05T07:07:30;22.10;63.60
10231;DHT22;5159;49.432;8.680;2022-07-05T07:10:15;22.10;63.00
10231;DHT22;5159;49.432;8.680;2022-07-05T07:12:42;22.50;59.70
10231;DHT22;5159;49.432;8.680;2022-07-05T07:15:10;22.90;57.40
10231;DHT22;5159;49.432;8.680;2022-07-05T07:17:38;23.10;54.20
10231;DHT22;5159;49.432;8.680;2022-07-05T07:20:07;23.30;55.00
10231;DHT22;5159;49.432;8.680;2022-07-05T07:22:35;23.70;54.10
10231;DHT22;5159;49.432;8.680;2022-07-05T07:25:03;24.00;51.50
10231;DHT22;5159;49.432;8.680;2022-07-05T07:27:31;24.00;49.80
10231;DHT22;5159;49.432;8.680;2022-07-05T07:29:58;23.80;50.50
10231;DHT22;5159;49.432;8.680;2022-07-05T07:32:25;24.00;49.80
10231;DHT22;5159;49.432;8.680;2022-07-05T07:34:52;24.40;49.00
10231;DHT22;5159;49.432;8.680;2022-07-05T07:37:20;24.80;47.90
10231;DHT22;5159;49.432;8.680;2022-07-05T07:39:47;25.00;45.40
10231;DHT22;5159;49.432;8.680;2022-07-05T07:42:14;25.30;44.10
10231;DHT22;5159;49.432;8.680;2022-07-05T07:44:41;25.20;44.00
10231;DHT22;5159;49.432;8.680;2022-07-05T07:47:09;24.90;45.00
10231;DHT22;5159;49.432;8.680;2022-07-05T07:49:36;24.50;44.90
10231;DHT22;5159;49.432;8.680;2022-07-05T07:52:04;24.60;45.50
10231;DHT22;5159;49.432;8.680;2022-07-05T07:54:34;25.10;45.00
10231;DHT22;5159;49.432;8.680;2022-07-05T07:57:19;25.40;44.40
10231;DHT22;5159;49.432;8.680;2022-07-05T08:00:00;25.80;43.20
10231;DHT22;5159;49.432;8.680;2022-07-05T08:02:27;26.10;41.90
10231;DHT22;5159;49.432;8.680;2022-07-05T08:04:54;26.20;41.30
10231;DHT22;5159;49.432;8.680;2022-07-05T08:07:23;26.50;41.90
10231;DHT22;5159;49.432;8.680;2022-07-05T08:09:52;26.80;39.50
10231;DHT22;5159;49.432;8.680;2022-07-05T08:12:20;27.00;36.90
10231;DHT22;5159;49.432;8.680;2022-07-05T08:15:00;27.00;37.20
10231;DHT22;5159;49.432;8.680;2022-07-05T08:17:33;26.90;36.30
10231;DHT22;5159;49.432;8.680;2022-07-05T08:20:02;26.90;34.50
10231;DHT22;5159;49.432;8.680;2022-07-05T08:22:57;26.90;37.10
10231;DHT22;5159;49.432;8.680;2022-07-05T08:26:02;27.50;36.50
10231;DHT22;5159;49.432;8.680;2022-07-05T08:28:31;27.80;33.90
10231;DHT22;5159;49.432;8.680;2022-07-05T08:30:58;28.10;33.90
10231;DHT22;5159;49.432;8.680;2022-07-05T08:33:28;28.40;34.20
10231;DHT22;5159;49.432;8.680;2022-07-05T08:35:55;28.30;34.90
10231;DHT22;5159;49.432;8.680;2022-07-05T08:38:22;28.50;32.20
10231;DHT22;5159;49.432;8.680;2022-07-05T08:40:50;28.30;29.10
10231;DHT22;5159;49.432;8.680;2022-07-05T08:43:20;28.50;30.00
10231;DHT22;5159;49.432;8.680;2022-07-05T08:45:49;28.80;29.20
10231;DHT22;5159;49.432;8.680;2022-07-05T08:48:17;28.70;26.40
10231;DHT22;5159;49.432;8.680;2022-07-05T08:50:46;27.70;28.60
10231;DHT22;5159;49.432;8.680;2022-07-05T08:53:15;28.30;30.50
10231;DHT22;5159;49.432;8.680;2022-07-05T08:55:42;28.90;28.60
10231;DHT22;5159;49.432;8.680;2022-07-05T08:58:10;29.40;27.20
10231;DHT22;5159;49.432;8.680;2022-07-05T09:00:39;29.90;25.60
10231;DHT22;5159;49.432;8.680;2022-07-05T09:03:06;30.30;24.40
10231;DHT22;5159;49.432;8.680;2022-07-05T09:05:37;30.50;25.00
10231;DHT22;5159;49.432;8.680;2022-07-05T09:08:07;30.50;24.50
10231;DHT22;5159;49.432;8.680;2022-07-05T09:10:37;30.50;24.20
10231;DHT22;5159;49.432;8.680;2022-07-05T09:13:04;30.80;23.30
10231;DHT22;5159;49.432;8.680;2022-07-05T09:15:31;31.10;23.30
10231;DHT22;5159;49.432;8.680;2022-07-05T09:18:00;31.20;22.80
10231;DHT22;5159;49.432;8.680;2022-07-05T09:20:27;30.50;22.20
10231;DHT22;5159;49.432;8.680;2022-07-05T09:22:55;30.80;22.90
10231;DHT22;5159;49.432;8.680;2022-07-05T09:25:23;31.40;23.40
10231;DHT22;5159;49.432;8.680;2022-07-05T09:27:55;31.70;20.70
10231;DHT22;5159;49.432;8.680;2022-07-05T09:30:31;30.10;22.90
10231;DHT22;5159;49.432;8.680;2022-07-05T09:33:10;29.10;22.20
10231;DHT22;5159;49.432;8.680;2022-07-05T09:35:39;28.10;22.50
10231;DHT22;5159;49.432;8.680;2022-07-05T09:38:15;29.00;24.40
10231;DHT22;5159;49.432;8.680;2022-07-05T09:40:47;29.60;23.10
10231;DHT22;5159;49.432;8.680;2022-07-05T09:43:15;30.30;22.40
10231;DHT22;5159;49.432;8.680;2022-07-05T09:45:53;30.00;23.00
10231;DHT22;5159;49.432;8.680;2022-07-05T09:48:22;30.80;22.00
10231;DHT22;5159;49.432;8.680;2022-07-05T09:50:49;31.40;21.10
10231;DHT22;5159;49.432;8.680;2022-07-05T09:53:17;31.90;20.10
10231;DHT22;5159;49.432;8.680;2022-07-05T09:56:00;32.00;20.10
10231;DHT22;5159;49.432;8.680;2022-07-05T09:58:27;30.60;20.60
10231;DHT22;5159;49.432;8.680;2022-07-05T10:00:55;30.80;21.30
10231;DHT22;5159;49.432;8.680;2022-07-05T10:03:23;30.90;20.50
10231;DHT22;5159;49.432;8.680;2022-07-05T10:05:50;31.10;19.40
10231;DHT22;5159;49.432;8.680;2022-07-05T10:08:20;31.00;18.20
10231;DHT22;5159;49.432;8.680;2022-07-05T10:10:49;31.00;19.40
10231;DHT22;5159;49.432;8.680;2022-07-05T10:16:11;32.00;18.30
10231;DHT22;5159;49.432;8.680;2022-07-05T10:18:40;32.60;17.40
10231;DHT22;5159;49.432;8.680;2022-07-05T10:21:12;33.00;18.10
10231;DHT22;5159;49.432;8.680;2022-07-05T10:23:42;31.50;16.50
10231;DHT22;5159;49.432;8.680;2022-07-05T10:26:11;29.90;18.00
10231;DHT22;5159;49.432;8.680;2022-07-05T10:28:40;29.60;20.30
10231;DHT22;5159;49.432;8.680;2022-07-05T10:31:07;30.40;20.20
10231;DHT22;5159;49.432;8.680;2022-07-05T10:33:37;31.30;19.10
10231;DHT22;5159;49.432;8.680;2022-07-05T10:36:09;32.10;18.20
10231;DHT22;5159;49.432;8.680;2022-07-05T10:38:42;32.60;17.30
10231;DHT22;5159;49.432;8.680;2022-07-05T10:41:12;32.90;16.30
10231;DHT22;5159;49.432;8.680;2022-07-05T10:43:41;33.20;15.40
10231;DHT22;5159;49.432;8.680;2022-07-05T10:46:08;33.40;15.40
10231;DHT22;5159;49.432;8.680;2022-07-05T10:48:37;33.50;15.50
10231;DHT22;5159;49.432;8.680;2022-07-05T10:51:17;32.70;15.30
10231;DHT22;5159;49.432;8.680;2022-07-05T10:54:03;32.90;15.40
10231;DHT22;5159;49.432;8.680;2022-07-05T10:56:33;32.90;14.70
10231;DHT22;5159;49.432;8.680;2022-07-05T10:59:09;32.10;15.00
10231;DHT22;5159;49.432;8.680;2022-07-05T11:01:41;31.00;15.10
10231;DHT22;5159;49.432;8.680;2022-07-05T11:04:29;30.90;16.10
10231;DHT22;5159;49.432;8.680;2022-07-05T11:10:23;32.00;15.10
10231;DHT22;5159;49.432;8.680;2022-07-05T11:12:58;32.30;15.00
10231;DHT22;5159;49.432;8.680;2022-07-05T11:15:30;31.60;15.80
10231;DHT22;5159;49.432;8.680;2022-07-05T11:18:15;32.00;16.50
10231;DHT22;5159;49.432;8.680;2022-07-05T11:20:42;31.90;14.20
10231;DHT22;5159;49.432;8.680;2022-07-05T11:23:11;31.30;14.80
10231;DHT22;5159;49.432;8.680;2022-07-05T11:25:45;31.10;16.90
10231;DHT22;5159;49.432;8.680;2022-07-05T11:28:19;30.80;16.70
10231;DHT22;5159;49.432;8.680;2022-07-05T11:30:53;29.70;16.20
10231;DHT22;5159;49.432;8.680;2022-07-05T11:33:41;29.60;17.90
10231;DHT22;5159;49.432;8.680;2022-07-05T11:36:25;30.40;20.10
10231;DHT22;5159;49.432;8.680;2022-07-05T11:39:13;31.00;19.70
10231;DHT22;5159;49.432;8.680;2022-07-05T11:41:47;31.30;17.50
10231;DHT22;5159;49.432;8.680;2022-07-05T11:44:14;31.50;15.80
10231;DHT22;5159;49.432;8.680;2022-07-05T11:46:42;31.70;17.10
10231;DHT22;5159;49.432;8.680;2022-07-05T11:49:10;31.90;16.10
10231;DHT22;5159;49.432;8.680;2022-07-05T11:51:39;32.30;16.10
10231;DHT22;5159;49.432;8.680;2022-07-05T11:54:09;32.50;16.00
10231;DHT22;5159;49.432;8.680;2022-07-05T11:56:36;32.70;14.90
10231;DHT22;5159;49.432;8.680;2022-07-05T11:59:17;32.70;15.90
10231;DHT22;5159;49.432;8.680;2022-07-05T12:01:45;32.90;16.20
10231;DHT22;5159;49.432;8.680;2022-07-05T12:04:20;32.90;15.20
10231;DHT22;5159;49.432;8.680;2022-07-05T12:06:48;32.70;15.80
10231;DHT22;5159;49.432;8.680;2022-07-05T12:09:23;32.90;15.20
10231;DHT22;5159;49.432;8.680;2022-07-05T12:11:51;33.20;15.40
10231;DHT22;5159;49.432;8.680;2022-07-05T12:14:37;33.40;15.00
10231;DHT22;5159;49.432;8.680;2022-07-05T12:17:11;33.30;14.50
10231;DHT22;5159;49.432;8.680;2022-07-05T12:19:39;33.40;13.30
10231;DHT22;5159;49.432;8.680;2022-07-05T12:22:05;32.80;14.10
10231;DHT22;5159;49.432;8.680;2022-07-05T12:24:34;32.80;13.20
10231;DHT22;5159;49.432;8.680;2022-07-05T12:27:01;32.30;15.00
10231;DHT22;5159;49.432;8.680;2022-07-05T12:29:29;31.70;13.90
10231;DHT22;5159;49.432;8.680;2022-07-05T12:32:02;31.10;15.70
10231;DHT22;5159;49.432;8.680;2022-07-05T12:34:30;31.20;15.90
10231;DHT22;5159;49.432;8.680;2022-07-05T12:36:57;30.00;16.00
10231;DHT22;5159;49.432;8.680;2022-07-05T12:39:24;29.90;18.20
10231;DHT22;5159;49.432;8.680;2022-07-05T12:41:51;30.00;18.10
10231;DHT22;5159;49.432;8.680;2022-07-05T12:44:19;29.90;17.50
10231;DHT22;5159;49.432;8.680;2022-07-05T12:46:47;29.50;17.40
10231;DHT22;5159;49.432;8.680;2022-07-05T12:49:17;29.50;18.70
10231;DHT22;5159;49.432;8.680;2022-07-05T12:51:45;29.50;18.10
10231;DHT22;5159;49.432;8.680;2022-07-05T12:54:21;29.30;19.40
10231;DHT22;5159;49.432;8.680;2022-07-05T12:57:07;29.70;18.90
10231;DHT22;5159;49.432;8.680;2022-07-05T12:59:59;30.10;16.40
10231;DHT22;5159;49.432;8.680;2022-07-05T13:02:36;29.60;15.70
10231;DHT22;5159;49.432;8.680;2022-07-05T13:05:07;29.00;16.40
10231;DHT22;5159;49.432;8.680;2022-07-05T13:07:41;28.30;16.70
10231;DHT22;5159;49.432;8.680;2022-07-05T13:10:16;28.60;17.60
10231;DHT22;5159;49.432;8.680;2022-07-05T13:12:43;29.30;17.10
10231;DHT22;5159;49.432;8.680;2022-07-05T13:15:10;28.90;15.40
10231;DHT22;5159;49.432;8.680;2022-07-05T13:17:38;29.00;15.80
10231;DHT22;5159;49.432;8.680;2022-07-05T13:20:08;29.30;15.40
10231;DHT22;5159;49.432;8.680;2022-07-05T13:22:35;29.60;17.10
10231;DHT22;5159;49.432;8.680;2022-07-05T13:25:03;30.30;16.60
10231;DHT22;5159;49.432;8.680;2022-07-05T13:27:30;30.90;17.40
10231;DHT22;5159;49.432;8.680;2022-07-05T13:29:57;31.40;14.80
10231;DHT22;5159;49.432;8.680;2022-07-05T13:32:24;31.20;13.30
10231;DHT22;5159;49.432;8.680;2022-07-05T13:34:51;30.20;13.50
10231;DHT22;5159;49.432;8.680;2022-07-05T13:37:20;30.30;16.20
10231;DHT22;5159;49.432;8.680;2022-07-05T13:39:47;30.00;13.90
10231;DHT22;5159;49.432;8.680;2022-07-05T13:42:15;30.30;15.00
10231;DHT22;5159;49.432;8.680;2022-07-05T13:44:43;30.10;16.10
10231;DHT22;5159;49.432;8.680;2022-07-05T13:47:10;29.60;15.90
10231;DHT22;5159;49.432;8.680;2022-07-05T13:49:38;29.10;15.30
10231;DHT22;5159;49.432;8.680;2022-07-05T13:52:06;29.10;15.50
10231;DHT22;5159;49.432;8.680;2022-07-05T13:54:35;29.30;15.40
10231;DHT22;5159;49.432;8.680;2022-07-05T13:57:03;29.20;14.50
10231;DHT22;5159;49.432;8.680;2022-07-05T13:59:30;29.50;16.70
10231;DHT22;5159;49.432;8.680;2022-07-05T14:01:58;29.90;16.70
10231;DHT22;5159;49.432;8.680;2022-07-05T14:04:25;30.50;15.70
10231;DHT22;5159;49.432;8.680;2022-07-05T14:06:55;30.90;14.70
10231;DHT22;5159;49.432;8.680;2022-07-05T14:09:22;31.10;14.00
10231;DHT22;5159;49.432;8.680;2022-07-05T14:11:52;30.10;13.10
10231;DHT22;5159;49.432;8.680;2022-07-05T14:14:19;29.40;14.20
10231;DHT22;5159;49.432;8.680;2022-07-05T14:16:46;29.40;16.20
10231;DHT22;5159;49.432;8.680;2022-07-05T14:19:13;29.60;15.70
10231;DHT22;5159;49.432;8.680;2022-07-05T14:21:40;29.70;15.60
10231;DHT22;5159;49.432;8.680;2022-07-05T14:24:10;29.70;16.70
10231;DHT22;5159;49.432;8.680;2022-07-05T14:26:38;29.50;15.80
10231;DHT22;5159;49.432;8.680;2022-07-05T14:29:08;29.80;16.90
10231;DHT22;5159;49.432;8.680;2022-07-05T14:31:35;29.80;15.30
10231;DHT22;5159;49.432;8.680;2022-07-05T14:34:24;29.70;16.20
10231;DHT22;5159;49.432;8.680;2022-07-05T14:36:59;30.10;16.00
10231;DHT22;5159;49.432;8.680;2022-07-05T14:39:26;30.30;14.40
10231;DHT22;5159;49.432;8.680;2022-07-05T14:41:52;30.30;13.80
10231;DHT22;5159;49.432;8.680;2022-07-05T14:44:21;29.80;13.30
10231;DHT22;5159;49.432;8.680;2022-07-05T14:46:48;29.40;14.30
10231;DHT22;5159;49.432;8.680;2022-07-05T14:49:15;29.20;15.00
10231;DHT22;5159;49.432;8.680;2022-07-05T14:51:42;29.40;15.30
10231;DHT22;5159;49.432;8.680;2022-07-05T14:54:09;29.60;16.00
10231;DHT22;5159;49.432;8.680;2022-07-05T14:56:36;29.70;15.10
10231;DHT22;5159;49.432;8.680;2022-07-05T14:59:03;29.80;14.10
10231;DHT22;5159;49.432;8.680;2022-07-05T15:01:31;30.00;14.50
10231;DHT22;5159;49.432;8.680;2022-07-05T15:03:58;30.40;15.50
10231;DHT22;5159;49.432;8.680;2022-07-05T15:06:25;30.60;15.10
10231;DHT22;5159;49.432;8.680;2022-07-05T15:08:52;30.70;14.80
10231;DHT22;5159;49.432;8.680;2022-07-05T15:11:19;30.40;15.00
10231;DHT22;5159;49.432;8.680;2022-07-05T15:13:46;30.10;15.20
10231;DHT22;5159;49.432;8.680;2022-07-05T15:16:15;30.00;14.20
10231;DHT22;5159;49.432;8.680;2022-07-05T15:18:44;29.90;13.80
10231;DHT22;5159;49.432;8.680;2022-07-05T15:21:11;29.60;14.90
10231;DHT22;5159;49.432;8.680;2022-07-05T15:23:38;29.40;14.00
10231;DHT22;5159;49.432;8.680;2022-07-05T15:26:05;29.20;14.30
10231;DHT22;5159;49.432;8.680;2022-07-05T15:28:32;29.00;16.50
10231;DHT22;5159;49.432;8.680;2022-07-05T15:30:59;29.00;17.20
10231;DHT22;5159;49.432;8.680;2022-07-05T15:33:26;29.30;16.50
10231;DHT22;5159;49.432;8.680;2022-07-05T15:35:57;29.40;16.00
10231;DHT22;5159;49.432;8.680;2022-07-05T15:38:24;29.20;15.90
10231;DHT22;5159;49.432;8.680;2022-07-05T15:40:52;29.20;15.70
10231;DHT22;5159;49.432;8.680;2022-07-05T15:43:20;29.00;15.60
10231;DHT22;5159;49.432;8.680;2022-07-05T15:45:50;29.40;15.60
10231;DHT22;5159;49.432;8.680;2022-07-05T15:48:19;29.70;16.20
10231;DHT22;5159;49.432;8.680;2022-07-05T15:50:46;29.70;15.60
10231;DHT22;5159;49.432;8.680;2022-07-05T15:53:15;29.70;14.60
10231;DHT22;5159;49.432;8.680;2022-07-05T15:55:42;29.50;15.00
10231;DHT22;5159;49.432;8.680;2022-07-05T15:58:09;29.30;15.80
10231;DHT22;5159;49.432;8.680;2022-07-05T16:00:36;29.10;16.40
10231;DHT22;5159;49.432;8.680;2022-07-05T16:03:03;29.00;16.60